Time;durP1;ratioP1;P1;durP2;ratioP2;P2;SDS_P1;SDS_P2;PMS_P1;PMS_P2;Temp;Humidity;BMP_temperature;BMP_pressure;BME280_temperature;BME280_humidity;BME280_pressure;Samples;Min_cycle;Max_cycle;Signal;HPM_P1;HPM_P2
2021/10/28 00:16:11;;;;;;;36.65;14.70;;;;;;;6.37;85.95;101965.09;1771232;79;21444;-60
2021/10/28 00:19:13;;;;;;;39.35;15.13;;;;;;;6.38;85.51;101960.67;1774262;79;21426;-62
2021/10/28 00:21:03;;;;;;;33.33;14.65;;;;;;;6.37;85.33;101958.43;1746936;79;21558;-63
2021/10/28 00:23:41;;;;;;;29.92;14.13;;;;;;;6.37;85.09;101958.89;1776804;79;21107;-72
2021/10/28 00:26:02;;;;;;;32.98;14.63;;;;;;;6.35;84.67;101954.88;1773819;79;21069;-70
2021/10/28 00:28:38;;;;;;;27.75;13.32;;;;;;;6.36;84.55;101958.45;1774344;79;21037;-62
2021/10/28 00:31:17;;;;;;;42.27;14.40;;;;;;;6.37;84.42;101954.89;1773114;79;21450;-61
2021/10/28 00:36:19;;;;;;;46.45;14.55;;;;;;;6.40;83.77;101948.23;1772344;79;21821;-71
2021/10/28 00:38:46;;;;;;;28.27;13.05;;;;;;;6.39;83.72;101948.66;1772557;79;21182;-72
2021/10/28 00:41:13;;;;;;;30.45;14.05;;;;;;;6.39;83.67;101949.99;1772469;79;21131;-71
2021/10/28 00:43:45;;;;;;;29.72;13.53;;;;;;;6.37;83.59;101944.24;1769296;79;21033;-72
2021/10/28 00:46:15;;;;;;;31.77;13.15;;;;;;;6.34;83.46;101938.91;1773612;79;21081;-71
2021/10/28 00:48:43;;;;;;;25.57;12.90;;;;;;;6.32;83.25;101935.36;1773395;79;21084;-71
2021/10/28 00:51:09;;;;;;;32.33;12.73;;;;;;;6.28;83.17;101940.66;1771602;79;21039;-71
2021/10/28 00:53:40;;;;;;;27.75;12.70;;;;;;;6.28;83.15;101937.98;1777103;79;21105;-71
2021/10/28 00:56:08;;;;;;;27.10;13.25;;;;;;;6.29;83.08;101935.77;1774141;79;21547;-69
2021/10/28 00:58:35;;;;;;;28.47;12.93;;;;;;;6.30;82.90;101935.34;1770968;79;21067;-71
2021/10/28 01:01:04;;;;;;;28.92;13.55;;;;;;;6.30;82.78;101938.91;1729402;82;21625;-71
2021/10/28 01:03:39;;;;;;;31.97;12.68;;;;;;;6.29;82.50;101939.77;1724222;82;21578;-71
2021/10/28 01:06:08;;;;;;;34.15;14.07;;;;;;;6.27;82.45;101936.21;1715598;82;21233;-71
2021/10/28 01:08:39;;;;;;;31.35;13.70;;;;;;;6.23;82.30;101934.44;1719947;82;21056;-71
2021/10/28 01:11:08;;;;;;;26.87;13.70;;;;;;;6.17;82.28;101931.77;1751835;80;21121;-71
2021/10/28 01:13:36;;;;;;;32.78;14.78;;;;;;;6.12;82.40;101936.20;1768181;79;21655;-71
2021/10/28 01:16:04;;;;;;;30.70;14.15;;;;;;;6.06;82.56;101935.73;1763261;79;21119;-71
2021/10/28 01:18:34;;;;;;;28.50;13.55;;;;;;;6.05;82.64;101930.39;1759576;79;21133;-71
2021/10/28 01:21:00;;;;;;;29.50;14.18;;;;;;;6.02;82.67;101939.28;1768334;79;21100;-71
2021/10/28 01:26:27;;;;;;;32.40;13.43;;;;;;;6.00;82.79;101925.91;1707768;82;21521;-72
2021/10/28 01:29:07;;;;;;;30.12;14.63;;;;;;;5.97;82.91;101932.56;1716201;82;21142;-71
2021/10/28 01:31:54;;;;;;;30.05;14.35;;;;;;;5.95;83.01;101943.66;1634270;86;21551;-72
2021/10/28 01:37:12;;;;;;;40.05;14.70;;;;;;;5.91;83.00;101939.20;1674946;82;21020;-72
2021/10/28 01:42:23;;;;;;;25.70;11.12;;;;;;;5.82;82.94;101945.81;1733439;81;21345;-71
2021/10/28 01:44:50;;;;;;;40.58;15.32;;;;;;;5.76;82.99;101940.47;1757535;79;21847;-72
2021/10/28 01:47:17;;;;;;;29.98;15.00;;;;;;;5.70;83.17;101947.55;1761764;79;21048;-71
2021/10/28 01:49:44;;;;;;;40.10;16.32;;;;;;;5.66;83.39;101948.42;1768726;79;21148;-72
2021/10/28 01:52:12;;;;;;;30.68;13.78;;;;;;;5.62;83.60;101945.27;1763257;79;21497;-70
2021/10/28 01:54:40;;;;;;;29.90;14.93;;;;;;;5.58;83.82;101940.83;1762768;79;21072;-71
2021/10/28 01:57:21;;;;;;;32.95;15.40;;;;;;;5.54;84.00;101947.92;1775990;79;22355;-72
2021/10/28 01:59:56;;;;;;;39.55;15.00;;;;;;;5.51;84.17;101949.67;1760200;79;21120;-71
2021/10/28 02:02:23;;;;;;;45.83;15.65;;;;;;;5.48;84.24;101948.33;1760870;79;21075;-70
2021/10/28 02:05:05;;;;;;;31.50;15.60;;;;;;;5.43;84.34;101950.53;1759456;79;21099;-71
2021/10/28 02:07:34;;;;;;;33.18;15.78;;;;;;;5.39;84.41;101948.70;1770730;79;21060;-70
2021/10/28 02:10:06;;;;;;;29.40;15.25;;;;;;;5.35;84.64;101952.23;1768705;79;21172;-71
2021/10/28 02:12:34;;;;;;;37.55;16.67;;;;;;;5.28;84.99;101955.28;1765184;79;21179;-71
2021/10/28 02:22:57;;;;;;;33.83;15.75;;;;;;;5.19;86.35;101954.33;1782865;79;21864;-71
2021/10/28 02:25:24;;;;;;;48.45;17.67;;;;;;;5.17;86.91;101950.35;1785915;79;21053;-70
2021/10/28 02:27:53;;;;;;;40.48;17.75;;;;;;;5.16;87.18;101952.11;1784537;78;21813;-71
2021/10/28 02:30:20;;;;;;;34.15;16.42;;;;;;;5.16;87.37;101952.56;1782184;79;21561;-71
2021/10/28 02:32:47;;;;;;;34.48;16.95;;;;;;;5.16;87.57;101950.78;1777590;79;21063;-72
2021/10/28 02:35:15;;;;;;;35.58;17.07;;;;;;;5.16;87.76;101953.44;1784508;79;22308;-71
2021/10/28 02:42:56;;;;;;;32.42;17.42;;;;;;;5.18;88.24;101957.88;1782596;79;21040;-71
2021/10/28 02:45:24;;;;;;;38.63;17.62;;;;;;;5.19;88.36;101954.33;1779280;78;21549;-71
2021/10/28 02:47:53;;;;;;;40.45;17.65;;;;;;;5.18;88.49;101961.44;1778757;79;21183;-71
2021/10/28 02:50:28;;;;;;;41.18;17.20;;;;;;;5.17;88.79;101967.63;1781707;79;21055;-71
2021/10/28 02:55:27;;;;;;;44.30;20.15;;;;;;;5.18;89.06;101971.17;1788121;79;21083;-71
2021/10/28 02:57:54;;;;;;;37.75;18.15;;;;;;;5.18;89.13;101964.09;1779316;78;21088;-70
2021/10/28 03:00:22;;;;;;;37.08;17.10;;;;;;;5.18;88.95;101964.52;1786592;79;21139;-71
2021/10/28 03:02:49;;;;;;;38.02;18.70;;;;;;;5.18;88.96;101974.73;1732543;80;21557;-70
2021/10/28 03:07:57;;;;;;;45.43;20.10;;;;;;;5.20;89.27;101971.64;1726528;82;21085;-70
2021/10/28 03:10:25;;;;;;;38.28;19.07;;;;;;;5.22;89.30;101965.89;1727548;82;21517;-71
2021/10/28 03:15:22;;;;;;;40.23;18.00;;;;;;;5.25;89.30;101975.67;1790169;78;21044;-62
2021/10/28 03:19:06;;;;;;;36.63;17.55;;;;;;;5.25;89.25;101977.88;1785831;78;21075;-70
2021/10/28 03:26:39;;;;;;;45.23;18.90;;;;;;;5.18;89.45;101977.39;1790640;78;21520;-71
2021/10/28 03:29:06;;;;;;;39.08;18.60;;;;;;;5.18;89.57;101984.46;1791402;78;22047;-71
2021/10/28 03:31:34;;;;;;;33.83;17.37;;;;;;;5.17;89.87;101986.25;1790242;78;21487;-71
2021/10/28 03:34:01;;;;;;;42.60;19.77;;;;;;;5.16;89.91;101991.98;1785171;79;21039;-71
2021/10/28 03:42:38;;;;;;;52.13;20.23;;;;;;;5.08;90.20;101986.16;1741638;81;21144;-72
2021/10/28 04:19:56;;;;;;;;;;;;;;;4.98;93.57;101999.84;1733193;81;21556;-70
2021/10/28 04:30:14;;;;;;;;;;;;;;;5.06;93.91;102014.08;1788533;79;21029;-71
2021/10/28 04:32:41;;;;;;;40.40;20.20;;;;;;;5.06;93.80;102017.16;1785408;79;21562;-70
2021/10/28 04:37:55;;;;;;;51.02;21.52;;;;;;;5.03;93.56;102015.39;1785300;79;21109;-70
2021/10/28 04:40:22;;;;;;;41.28;20.35;;;;;;;5.04;93.57;102026.47;1780843;78;21115;-70
2021/10/28 04:45:18;;;;;;;46.23;21.80;;;;;;;5.07;93.49;102026.49;1780592;79;21030;-71
2021/10/28 04:47:45;;;;;;;50.10;22.73;;;;;;;5.10;93.43;102033.63;1784354;78;21449;-70
2021/10/28 04:50:12;;;;;;;50.70;21.80;;;;;;;5.20;93.38;102040.78;1783739;79;21061;-70
2021/10/28 04:52:42;;;;;;;46.65;22.95;;;;;;;5.33;93.34;102048.41;1783821;79;21041;-70
2021/10/28 04:57:50;;;;;;;45.15;21.60;;;;;;;5.84;92.49;102057.16;1783981;79;21178;-71
2021/10/28 05:00:18;;;;;;;53.65;23.57;;;;;;;5.92;90.84;102064.77;1778753;79;21498;-71
2021/10/28 05:02:45;;;;;;;41.63;20.92;;;;;;;5.84;89.87;102071.80;1785978;79;21088;-70
2021/10/28 05:05:12;;;;;;;47.78;22.48;;;;;;;5.74;89.44;102068.19;1724651;82;21620;-71
2021/10/28 05:10:30;;;;;;;43.30;20.80;;;;;;;5.56;89.51;102074.30;1779506;79;21140;-70
2021/10/28 05:12:55;;;;;;;51.15;22.82;;;;;;;5.54;89.70;102080.05;1779567;79;21123;-70
2021/10/28 05:18:09;;;;;;;47.13;22.32;;;;;;;5.51;89.89;102082.23;1765702;80;21127;-71
2021/10/28 05:20:37;;;;;;;47.53;23.12;;;;;;;5.54;89.99;102090.27;1769157;80;21350;-70
2021/10/28 05:23:04;;;;;;;40.67;20.50;;;;;;;5.55;89.83;102087.14;1768421;80;21070;-71
2021/10/28 05:25:32;;;;;;;45.92;22.48;;;;;;;5.57;89.87;102087.63;1772687;80;21605;-71
2021/10/28 05:28:00;;;;;;;38.38;20.62;;;;;;;5.59;89.85;102086.28;1762987;80;21617;-71
2021/10/28 05:30:28;;;;;;;47.80;22.80;;;;;;;5.64;89.84;102092.98;1770453;79;21569;-71
2021/10/28 05:33:04;;;;;;;45.43;21.65;;;;;;;5.67;89.77;102092.57;1768998;80;21119;-71
2021/10/28 05:35:31;;;;;;;51.25;22.60;;;;;;;5.78;89.82;102086.41;1776504;80;21115;-72
2021/10/28 05:37:58;;;;;;;44.53;21.77;;;;;;;5.87;89.28;102091.36;1763881;80;21522;-71
2021/10/28 05:40:26;;;;;;;45.20;22.48;;;;;;;5.95;88.77;102091.41;1769995;80;21636;-71
2021/10/28 05:43:01;;;;;;;46.20;21.42;;;;;;;6.01;88.42;102090.59;1769846;80;21131;-71
2021/10/28 05:48:24;;;;;;;52.40;23.12;;;;;;;6.14;87.55;102102.20;1766853;80;21563;-73
2021/10/28 05:50:57;;;;;;;48.23;23.00;;;;;;;6.17;87.27;102107.54;1766045;80;21070;-71
2021/10/28 05:53:24;;;;;;;50.58;22.70;;;;;;;6.24;87.21;102106.67;1773311;80;21120;-71
2021/10/28 05:55:51;;;;;;;40.23;20.85;;;;;;;6.32;86.68;102104.05;1769656;80;21048;-71
2021/10/28 05:58:19;;;;;;;47.50;22.22;;;;;;;6.33;86.56;102110.29;1768218;80;21041;-69
2021/10/28 06:00:55;;;;;;;44.98;22.73;;;;;;;6.37;86.63;102116.07;1769095;80;21108;-72
2021/10/28 06:03:22;;;;;;;49.75;22.95;;;;;;;6.42;86.50;102110.31;1770410;80;21124;-71
2021/10/28 06:05:50;;;;;;;49.60;23.05;;;;;;;6.51;86.25;102118.33;1769388;79;21080;-72
2021/10/28 06:08:25;;;;;;;47.23;23.30;;;;;;;6.58;86.24;102122.83;1768229;80;21095;-70
2021/10/28 06:10:52;;;;;;;48.83;22.22;;;;;;;6.66;85.94;102127.28;1767491;80;21656;-71
2021/10/28 06:13:19;;;;;;;53.78;23.87;;;;;;;6.69;85.76;102132.61;1772781;78;21143;-71
2021/10/28 06:19:59;;;;;;;48.73;25.50;;;;;;;6.80;85.71;102125.56;1732560;79;21099;-64
2021/10/28 06:22:40;;;;;;;58.87;26.37;;;;;;;6.89;85.68;102138.03;1765436;79;21040;-66
2021/10/28 06:25:09;;;;;;;55.43;27.80;;;;;;;7.01;85.54;102127.83;1755877;80;21087;-63
2021/10/28 06:27:36;;;;;;;51.58;27.50;;;;;;;7.11;85.44;102130.95;1775862;79;21543;-64
2021/10/28 06:30:04;;;;;;;50.12;25.88;;;;;;;7.20;85.18;102126.53;1774006;79;21018;-57
2021/10/28 06:32:31;;;;;;;63.02;27.42;;;;;;;7.30;85.05;102129.21;1776000;79;21099;-57
2021/10/28 06:35:01;;;;;;;49.80;26.27;;;;;;;7.39;84.93;102123.42;1777875;79;21029;-57
2021/10/28 06:37:28;;;;;;;63.30;27.07;;;;;;;7.52;84.87;102121.64;1762667;79;21842;-56
2021/10/28 06:39:55;;;;;;;45.35;24.47;;;;;;;7.65;84.58;102126.53;1765691;80;21125;-57
2021/10/28 06:42:22;;;;;;;60.15;26.48;;;;;;;7.77;84.03;102124.29;1763970;80;21096;-63
2021/10/28 06:44:50;;;;;;;58.87;28.40;;;;;;;7.84;83.75;102126.05;1762278;80;21103;-64
2021/10/28 06:47:17;;;;;;;64.20;27.55;;;;;;;7.93;83.74;102124.72;1758048;80;21132;-64
2021/10/28 06:49:44;;;;;;;65.12;30.23;;;;;;;8.07;83.79;102126.45;1762209;80;21063;-64
2021/10/28 06:52:12;;;;;;;72.20;35.70;;;;;;;8.24;83.63;102119.28;1757854;80;22303;-64
2021/10/28 06:54:46;;;;;;;72.85;31.00;;;;;;;8.41;83.16;102121.02;1760203;79;21118;-64
2021/10/28 07:02:43;;;;;;;57.10;30.05;;;;;;;8.85;82.10;102116.39;1766797;79;21599;-57
2021/10/28 07:05:08;;;;;;;58.35;29.48;;;;;;;9.01;81.88;102108.69;1765493;79;21190;-57
2021/10/28 07:07:36;;;;;;;64.85;30.70;;;;;;;9.19;81.57;102105.45;1765680;79;21051;-57
2021/10/28 07:10:19;;;;;;;78.52;37.03;;;;;;;9.31;80.95;102099.11;1767904;79;21059;-57
2021/10/28 07:12:53;;;;;;;62.43;32.08;;;;;;;9.41;80.61;102110.64;1764546;79;21050;-58
2021/10/28 07:18:23;;;;;;;58.13;29.12;;;;;;;9.63;79.63;102116.71;1769454;79;21492;-57
2021/10/28 07:24:06;;;;;;;64.58;29.52;;;;;;;9.80;78.80;102123.67;1752845;80;21164;-58
2021/10/28 07:29:09;;;;;;;72.62;29.82;;;;;;;9.88;78.21;102124.03;1764599;79;21107;-57
2021/10/28 07:34:28;;;;;;;55.08;25.62;;;;;;;9.95;77.95;102114.16;1812800;77;21571;-56
2021/10/28 07:39:47;;;;;;;71.40;30.92;;;;;;;10.08;77.71;102112.22;1766748;79;21042;-57
2021/10/28 08:15:14;;;;;;;;;;;;;;;10.95;74.27;102093.70;1746069;79;21057;-58
2021/10/28 08:20:07;;;;;;;53.83;23.87;;;;;;;11.13;73.99;102100.58;1772808;78;21095;-58
2021/10/28 08:30:21;;;;;;;57.05;25.00;;;;;;;11.44;73.21;102100.09;1816742;77;21050;-57
2021/10/28 08:32:48;;;;;;;67.08;24.98;;;;;;;11.52;72.99;102101.75;1814431;77;21012;-59
2021/10/28 08:35:15;;;;;;;101.80;27.62;;;;;;;11.58;72.49;102104.32;1809632;77;21572;-58
2021/10/28 08:37:50;;;;;;;90.28;26.50;;;;;;;11.63;71.80;102109.18;1809707;77;21527;-58
2021/10/28 08:40:17;;;;;;;74.72;25.35;;;;;;;11.70;71.72;102104.11;1810269;77;21071;-66
2021/10/28 08:42:44;;;;;;;55.23;23.25;;;;;;;11.79;71.78;102108.44;1808526;77;21118;-68
2021/10/28 08:45:14;;;;;;;89.15;28.77;;;;;;;11.89;70.95;102112.71;1803850;77;21165;-57
2021/10/28 08:47:57;;;;;;;69.53;24.32;;;;;;;11.96;70.63;102105.42;1811543;77;20972;-58
2021/10/28 08:50:33;;;;;;;45.52;22.62;;;;;;;12.07;70.34;102106.59;1809996;78;21099;-58
2021/10/28 08:55:35;;;;;;;46.08;21.52;;;;;;;12.27;69.55;102102.62;1812793;77;21034;-65
2021/10/28 09:26:29;;;;;;;41.55;19.98;;;;;;;13.03;69.22;102087.50;1751673;80;21066;-57
2021/10/28 09:29:02;;;;;;;36.77;20.50;;;;;;;13.10;69.00;102077.00;1751161;79;21686;-65
2021/10/28 09:31:33;;;;;;;34.38;20.82;;;;;;;13.16;69.20;102080.01;1754696;80;21126;-57
2021/10/28 09:34:56;;;;;;;39.53;21.17;;;;;;;13.18;69.39;102080.41;1747759;79;21099;-57
2021/10/28 09:45:50;;;;;;;39.20;22.17;;;;;;;13.27;70.18;102064.48;1750332;79;21101;-66
2021/10/28 09:48:46;;;;;;;34.05;21.00;;;;;;;13.26;70.25;102065.86;1744601;79;21473;-57
2021/10/28 09:51:04;;;;;;;34.00;20.82;;;;;;;13.22;70.18;102066.86;1745057;79;24879;-66
2021/10/28 09:54:08;;;;;;;32.98;21.30;;;;;;;13.13;70.34;102060.76;1752417;79;21336;-59
2021/10/28 09:59:52;;;;;;;35.60;20.45;;;;;;;13.08;70.49;102055.95;1750579;79;21553;-67
2021/10/28 10:05:24;;;;;;;36.68;20.80;;;;;;;13.07;70.50;102050.15;1706922;79;20905;-57
2021/10/28 10:07:53;;;;;;;40.10;21.80;;;;;;;13.07;70.58;102045.24;1742145;79;21108;-58
2021/10/28 10:10:25;;;;;;;34.20;19.35;;;;;;;13.08;70.34;102050.57;1757081;79;21524;-65
2021/10/28 10:12:52;;;;;;;34.65;19.37;;;;;;;13.09;70.23;102052.34;1747010;79;21126;-59
2021/10/28 10:15:19;;;;;;;35.48;18.95;;;;;;;13.08;70.20;102046.53;1749855;79;21735;-67
2021/10/28 10:17:54;;;;;;;29.95;19.62;;;;;;;13.06;70.53;102047.52;1758957;80;21558;-58
2021/10/28 10:20:31;;;;;;;33.20;19.55;;;;;;;13.00;70.67;102042.68;1791340;78;21102;-65
2021/10/28 12:14:04;;;;;;;34.45;20.60;;;;;;;12.96;71.78;101959.36;1800381;77;21343;-66
2021/10/28 13:04:00;;;;;;;40.50;22.32;;;;;;;13.11;73.41;101936.05;1762317;79;21670;-65
2021/10/28 13:06:29;;;;;;;41.77;22.90;;;;;;;13.13;73.58;101935.55;1804716;77;20852;-66
2021/10/28 13:34:56;;;;;;;45.12;26.33;;;;;;;13.03;73.49;101925.48;1763393;78;20975;-62
2021/10/28 13:50:34;;;;;;;50.28;27.42;;;;;;;12.94;75.30;101929.78;1764613;78;21058;-57
2021/10/28 13:55:58;;;;;;;48.90;26.20;;;;;;;12.91;75.61;101925.83;1768701;78;20944;-59
2021/10/28 14:15:15;;;;;;;52.93;27.95;;;;;;;12.73;77.47;101902.97;1766961;78;21500;-58
2021/10/28 15:03:24;;;;;;;;;;;;;;;;;;;;;
2021/10/28 15:29:14;;;;;;;48.92;26.95;;;;;;;11.67;76.31;101895.97;1814880;77;21508;-58
2021/10/28 15:37:03;;;;;;;59.15;27.93;;;;;;;11.61;75.09;101893.42;1808190;76;21070;-57
2021/10/28 15:39:32;;;;;;;52.15;24.92;;;;;;;11.58;74.70;101888.08;1807378;77;21139;-58
2021/10/28 15:42:16;;;;;;;48.90;23.00;;;;;;;11.57;74.40;101890.34;1810812;77;21513;-57
2021/10/28 16:23:02;;;;;;;;;;;;;;;11.21;71.88;101917.03;1813229;77;21530;-57
2021/10/28 16:25:30;;;;;;;48.42;22.98;;;;;;;11.18;72.00;101923.34;1802352;77;20189;-57
2021/10/28 16:27:58;;;;;;;51.53;25.85;;;;;;;11.13;72.44;101923.41;1801844;77;21129;-58
2021/10/28 16:30:25;;;;;;;49.42;25.72;;;;;;;11.08;73.18;101921.28;1807117;77;21098;-58
2021/10/28 16:32:53;;;;;;;53.58;26.77;;;;;;;11.03;74.30;101932.56;1801505;77;21041;-58
2021/10/28 16:35:21;;;;;;;59.67;25.92;;;;;;;10.97;75.56;101923.29;1797517;77;21040;-58
2021/10/28 16:37:49;;;;;;;55.25;27.07;;;;;;;10.91;76.53;101916.66;1810788;77;21460;-58
2021/10/28 16:40:18;;;;;;;52.03;26.25;;;;;;;10.85;77.42;101923.92;1820713;77;21589;-57
2021/10/28 16:42:45;;;;;;;53.83;27.62;;;;;;;10.81;78.16;101919.52;1810899;77;21079;-58
2021/10/28 16:45:12;;;;;;;61.42;25.90;;;;;;;10.77;78.79;101931.66;1817080;77;21873;-57
2021/10/28 16:47:40;;;;;;;52.98;27.40;;;;;;;10.73;79.54;101928.17;1816197;77;21055;-65
2021/10/28 16:50:08;;;;;;;48.42;26.77;;;;;;;10.67;80.08;101934.52;1807552;77;21048;-58
2021/10/28 16:52:35;;;;;;;47.60;27.37;;;;;;;10.63;80.56;101925.19;1811995;77;21328;-58
2021/10/28 16:55:03;;;;;;;54.93;28.50;;;;;;;10.57;81.00;101934.22;1823398;77;20982;-56
2021/10/28 16:57:30;;;;;;;59.30;29.63;;;;;;;10.50;81.41;101932.55;1818298;77;21622;-58
2021/10/28 16:59:57;;;;;;;52.90;28.12;;;;;;;10.41;81.83;101927.78;1802061;77;21385;-59
2021/10/28 17:02:26;;;;;;;59.08;29.45;;;;;;;10.36;82.19;101926.91;1806488;77;21411;-57
2021/10/28 17:04:54;;;;;;;53.02;28.62;;;;;;;10.31;82.52;101925.66;1817256;77;21032;-64
2021/10/28 17:07:21;;;;;;;50.78;27.13;;;;;;;10.26;82.77;101923.47;1818595;77;21043;-64
2021/10/28 17:09:49;;;;;;;50.98;27.50;;;;;;;10.24;82.93;101929.31;1810124;77;21055;-64
2021/10/28 17:12:16;;;;;;;53.85;27.25;;;;;;;10.21;83.12;101937.41;1801965;77;21523;-64
2021/10/28 17:14:43;;;;;;;52.80;28.57;;;;;;;10.18;83.24;101937.45;1806058;77;21091;-64
2021/10/28 17:17:12;;;;;;;52.90;27.52;;;;;;;10.17;83.31;101935.69;1808745;77;20928;-63
2021/10/28 17:19:41;;;;;;;50.50;27.52;;;;;;;10.15;83.44;101937.50;1809019;77;21086;-57
2021/10/28 17:22:08;;;;;;;50.20;26.68;;;;;;;10.13;83.57;101937.98;1813886;77;21407;-65
2021/10/28 17:24:44;;;;;;;54.40;27.35;;;;;;;10.10;83.71;101936.69;1830185;76;21011;-58
2021/10/28 17:27:06;;;;;;;50.33;26.90;;;;;;;10.06;83.80;101938.52;1820263;76;21030;-57
2021/10/28 17:29:34;;;;;;;51.15;26.17;;;;;;;10.03;83.92;101936.75;1825741;77;21303;-64
2021/10/28 17:32:02;;;;;;;52.17;27.20;;;;;;;10.01;84.05;101937.23;1820676;76;20903;-65
2021/10/28 17:34:30;;;;;;;46.98;25.77;;;;;;;9.99;84.23;101937.70;1825158;76;21093;-64
2021/10/28 17:36:56;;;;;;;49.88;26.57;;;;;;;9.99;84.36;101930.13;1824129;76;21094;-64
2021/10/28 17:39:24;;;;;;;49.18;25.32;;;;;;;9.98;84.48;101933.25;1822867;76;21094;-57
2021/10/28 17:41:52;;;;;;;52.40;26.95;;;;;;;9.98;84.54;101937.27;1818024;76;21839;-65
2021/10/28 17:44:21;;;;;;;51.02;26.65;;;;;;;9.98;84.57;101941.29;1836366;76;21503;-64
2021/10/28 17:46:48;;;;;;;49.00;25.48;;;;;;;9.96;84.56;101937.75;1835189;76;21043;-65
2021/10/28 17:49:15;;;;;;;52.50;26.52;;;;;;;9.93;84.57;101937.80;1823647;76;21064;-57
2021/10/28 17:51:42;;;;;;;44.70;25.08;;;;;;;9.91;84.57;101940.95;1834889;76;21500;-58
2021/10/28 17:54:10;;;;;;;50.17;25.37;;;;;;;9.91;84.67;101934.25;1816908;76;21409;-58
2021/10/28 17:56:39;;;;;;;43.95;24.50;;;;;;;9.89;84.66;101930.71;1830107;76;21035;-57
2021/10/28 17:59:06;;;;;;;46.60;24.02;;;;;;;9.88;84.71;101926.27;1827546;76;22238;-67
2021/10/28 18:01:34;;;;;;;44.13;24.35;;;;;;;9.88;84.76;101927.59;1816485;77;22157;-65
2021/10/28 18:04:01;;;;;;;43.55;23.85;;;;;;;9.87;84.72;101932.52;1824273;76;21046;-63
2021/10/28 18:06:29;;;;;;;52.65;24.72;;;;;;;9.86;84.77;101922.72;1828138;77;21095;-60
2021/10/28 18:08:56;;;;;;;47.13;24.72;;;;;;;9.85;84.75;101928.98;1822557;76;21041;-57
2021/10/28 18:11:24;;;;;;;48.15;25.02;;;;;;;9.84;84.77;101930.77;1839981;76;20856;-58
2021/10/28 18:13:54;;;;;;;51.55;25.35;;;;;;;9.83;84.80;101941.48;1830724;76;20978;-58
2021/10/28 18:16:23;;;;;;;47.40;24.25;;;;;;;9.80;84.84;101937.08;1849729;77;20996;-58
2021/10/28 18:18:52;;;;;;;49.67;25.77;;;;;;;9.80;84.88;101946.88;1826964;77;21502;-57
2021/10/28 18:21:20;;;;;;;45.85;24.57;;;;;;;9.78;85.03;101946.02;1818125;76;21974;-57
2021/10/28 18:23:49;;;;;;;49.83;25.48;;;;;;;9.77;85.17;101941.56;1817359;77;21015;-56
2021/10/28 18:26:17;;;;;;;48.00;25.45;;;;;;;9.74;85.31;101943.38;1829454;77;21052;-58
2021/10/28 18:28:44;;;;;;;45.83;25.10;;;;;;;9.73;85.39;101946.97;1819387;77;21044;-57
2021/10/28 18:31:14;;;;;;;47.27;26.25;;;;;;;9.71;85.50;101951.46;1825026;77;22177;-66
2021/10/28 18:33:43;;;;;;;52.62;27.05;;;;;;;9.70;85.61;101955.05;1831672;77;21483;-64
2021/10/28 18:36:11;;;;;;;47.55;26.42;;;;;;;9.68;85.77;101954.19;1827027;77;21054;-66
2021/10/28 18:38:44;;;;;;;48.28;26.48;;;;;;;9.66;85.82;101953.75;1825071;77;21024;-65
2021/10/28 18:41:08;;;;;;;48.98;27.13;;;;;;;9.63;85.90;101957.38;1838374;77;21542;-65
2021/10/28 18:43:35;;;;;;;51.95;27.25;;;;;;;9.58;86.00;101955.17;1834954;77;21508;-66
2021/10/28 18:46:02;;;;;;;57.27;28.87;;;;;;;9.56;86.08;101956.55;1837277;77;21406;-65
2021/10/28 18:48:31;;;;;;;58.17;28.75;;;;;;;9.56;86.08;101952.97;1821524;77;21433;-66
2021/10/28 18:50:59;;;;;;;52.38;26.97;;;;;;;9.56;86.04;101956.98;1816437;77;21568;-65
2021/10/28 18:53:26;;;;;;;56.95;29.00;;;;;;;9.56;85.99;101956.98;1806166;77;21066;-64
2021/10/28 18:55:54;;;;;;;56.33;28.60;;;;;;;9.57;85.90;101954.74;1822286;77;21069;-65
2021/10/28 18:58:21;;;;;;;52.00;27.20;;;;;;;9.56;85.89;101955.21;1821287;77;21530;-57
2021/10/28 19:00:49;;;;;;;54.42;28.55;;;;;;;9.56;85.82;101952.97;1821979;77;20974;-57
2021/10/28 19:03:18;;;;;;;57.40;28.25;;;;;;;9.56;85.76;101947.61;1817527;77;21094;-65
2021/10/28 19:05:45;;;;;;;48.68;26.27;;;;;;;9.56;85.69;101948.52;1828340;77;21056;-58
2021/10/28 19:08:13;;;;;;;52.88;27.15;;;;;;;9.55;85.59;101948.09;1794312;78;21587;-65
2021/10/28 19:10:40;;;;;;;48.28;26.37;;;;;;;9.54;85.53;101941.39;1824248;77;21040;-66
2021/10/28 19:13:08;;;;;;;45.80;24.43;;;;;;;9.53;85.46;101948.99;1810215;77;21358;-58
2021/10/28 19:15:36;;;;;;;44.18;24.43;;;;;;;9.53;85.38;101948.56;1827153;77;21047;-64
2021/10/28 19:18:06;;;;;;;46.63;24.65;;;;;;;9.55;85.30;101952.53;1827460;77;21417;-58
2021/10/28 19:20:35;;;;;;;51.33;25.95;;;;;;;9.56;85.19;101950.30;1831103;77;21939;-57
2021/10/28 19:23:03;;;;;;;49.03;25.35;;;;;;;9.59;85.11;101944.90;1840780;77;21008;-65
2021/10/28 19:25:30;;;;;;;49.18;26.48;;;;;;;9.59;85.02;101943.13;1815901;77;21120;-57
2021/10/28 19:27:58;;;;;;;50.48;26.07;;;;;;;9.62;84.90;101948.91;1830159;77;21623;-65
2021/10/28 19:30:30;;;;;;;55.05;25.45;;;;;;;9.62;84.78;101943.55;1842395;77;21075;-64
2021/10/28 19:32:58;;;;;;;44.48;24.18;;;;;;;9.63;84.53;101948.00;1816829;77;21512;-65
2021/10/28 19:35:25;;;;;;;41.25;23.12;;;;;;;9.64;84.37;101951.55;1759662;80;21488;-57
2021/10/28 19:39:12;;;;;;;44.85;20.57;;;;;;;9.64;84.16;101953.78;1795999;79;21007;-57
2021/10/28 19:48:34;;;;;;;33.83;18.98;;;;;;;9.74;83.21;101959.45;1760907;80;20195;-65
2021/10/28 19:51:02;;;;;;;41.00;21.52;;;;;;;9.77;82.97;101953.19;1761880;80;21064;-65
2021/10/28 19:53:30;;;;;;;39.60;20.05;;;;;;;9.79;82.74;101952.71;1786488;80;21082;-65
2021/10/28 19:56:08;;;;;;;38.33;21.00;;;;;;;9.80;82.48;101950.47;1758098;80;21088;-65
2021/10/28 19:58:28;;;;;;;41.18;20.52;;;;;;;9.81;82.30;101948.66;1764046;80;21021;-65
2021/10/28 20:01:01;;;;;;;32.80;17.77;;;;;;;9.82;82.19;101949.09;1785327;80;21600;-64
2021/10/28 20:03:44;;;;;;;33.35;18.82;;;;;;;9.82;82.06;101954.45;1777532;79;21149;-57
2021/10/28 20:06:13;;;;;;;36.85;19.37;;;;;;;9.84;81.93;101948.64;1767439;80;21084;-57
2021/10/28 20:22:24;;;;;;;;;;;;;;;9.88;80.65;101957.07;1759266;79;21012;-57
2021/10/28 20:24:51;;;;;;;34.70;17.77;;;;;;;9.87;80.55;101955.30;1770158;79;21140;-57
2021/10/28 20:27:18;;;;;;;35.35;17.70;;;;;;;9.87;80.53;101953.95;1773080;79;21155;-57
2021/10/28 20:29:46;;;;;;;29.87;17.30;;;;;;;9.86;80.50;101954.87;1759028;79;21443;-57
2021/10/28 20:32:12;;;;;;;27.67;16.57;;;;;;;9.85;80.51;101956.64;1775338;79;21070;-58
2021/10/28 20:35:05;;;;;;;30.95;16.77;;;;;;;9.84;80.51;101957.55;1771318;79;21119;-65
2021/10/28 20:37:20;;;;;;;29.48;16.45;;;;;;;9.83;80.53;101949.52;1762477;79;21093;-66
2021/10/28 20:39:47;;;;;;;33.75;17.55;;;;;;;9.81;80.65;101954.91;1756801;79;21099;-65
2021/10/28 20:42:16;;;;;;;29.35;16.30;;;;;;;9.81;80.73;101954.02;1761835;79;21533;-65
2021/10/28 20:44:47;;;;;;;30.15;17.62;;;;;;;9.80;80.79;101950.90;1784822;79;21037;-57
2021/10/28 20:47:14;;;;;;;36.83;18.57;;;;;;;9.78;80.88;101962.09;1747323;79;21073;-57
2021/10/28 20:49:41;;;;;;;34.50;18.07;;;;;;;9.76;81.03;101959.45;1778705;79;22349;-57
2021/10/28 20:52:08;;;;;;;34.92;18.35;;;;;;;9.73;81.17;101952.33;1756372;79;20985;-57
2021/10/28 20:54:35;;;;;;;38.53;19.98;;;;;;;9.74;81.40;101958.59;1768874;79;21901;-57
2021/10/28 20:57:05;;;;;;;33.05;19.35;;;;;;;9.70;81.63;101953.70;1769643;79;21024;-56
2021/10/28 20:59:32;;;;;;;33.45;19.30;;;;;;;9.69;81.78;101957.73;1770034;79;21064;-57
2021/10/28 21:01:59;;;;;;;37.90;20.20;;;;;;;9.66;81.95;101957.33;1779955;79;21141;-57
2021/10/28 21:04:26;;;;;;;38.65;20.00;;;;;;;9.64;82.08;101957.80;1779494;79;20984;-56
2021/10/28 21:06:53;;;;;;;36.98;18.20;;;;;;;9.62;82.24;101958.28;1753592;79;21052;-56
2021/10/28 21:09:20;;;;;;;37.17;19.67;;;;;;;9.62;82.37;101954.27;1759801;79;21103;-56